Terminal Aerodrome Forecast
Issued by NWS La Crosse, WI

Home | Current Version | Previous Version | Text Only | Print | Product List | Glossary On
Versions: 1 2 3 4 5 6 7 8 9 10 11 12 13 14 15 16
000
FTUS43 KARX 271120
TAFLSE
TAF
KLSE 271120Z 2712/2812 16004KT P6SM FEW200
     FM272000 18007KT P6SM SCT150
     FM280000 16005KT P6SM BKN100
     FM280600 15006KT 6SM -RA OVC030 WS020/17035KT
     FM280900 15005KT 4SM -RA OVC010=

USA.gov is the U.S. government's official web portal to all federal, state and local government web resources and services.